sensor_id;sensor_type;location;lat;lon;timestamp;P1;durP1;ratioP1;P2;durP2;ratioP2
26484;SDS011;18083;50.560;7.262;2022-08-14T00:00:11;4.03;;;2.87;;
26484;SDS011;18083;50.560;7.262;2022-08-14T00:02:39;3.50;;;3.20;;
26484;SDS011;18083;50.560;7.262;2022-08-14T00:05:10;3.80;;;3.45;;
26484;SDS011;18083;50.560;7.262;2022-08-14T00:07:38;4.12;;;3.20;;
26484;SDS011;18083;50.560;7.262;2022-08-14T00:10:06;9.78;;;3.45;;
26484;SDS011;18083;50.560;7.262;2022-08-14T00:12:35;5.12;;;2.98;;
26484;SDS011;18083;50.560;7.262;2022-08-14T00:15:04;3.08;;;2.87;;
26484;SDS011;18083;50.560;7.262;2022-08-14T00:17:31;4.95;;;3.65;;
26484;SDS011;18083;50.560;7.262;2022-08-14T00:19:59;4.05;;;3.00;;
26484;SDS011;18083;50.560;7.262;2022-08-14T00:22:26;2.92;;;2.72;;
26484;SDS011;18083;50.560;7.262;2022-08-14T00:24:53;17.07;;;4.83;;
26484;SDS011;18083;50.560;7.262;2022-08-14T00:27:21;3.40;;;3.17;;
26484;SDS011;18083;50.560;7.262;2022-08-14T00:29:48;9.60;;;3.20;;
26484;SDS011;18083;50.560;7.262;2022-08-14T00:32:15;3.67;;;3.35;;
26484;SDS011;18083;50.560;7.262;2022-08-14T00:34:43;3.47;;;3.15;;
26484;SDS011;18083;50.560;7.262;2022-08-14T00:37:10;3.92;;;3.10;;
26484;SDS011;18083;50.560;7.262;2022-08-14T00:39:38;3.95;;;3.20;;
26484;SDS011;18083;50.560;7.262;2022-08-14T00:42:06;3.47;;;3.17;;
26484;SDS011;18083;50.560;7.262;2022-08-14T00:44:33;4.47;;;2.98;;
26484;SDS011;18083;50.560;7.262;2022-08-14T00:47:01;3.27;;;3.00;;
26484;SDS011;18083;50.560;7.262;2022-08-14T00:49:30;3.17;;;2.90;;
26484;SDS011;18083;50.560;7.262;2022-08-14T00:51:58;3.55;;;3.30;;
26484;SDS011;18083;50.560;7.262;2022-08-14T00:54:25;5.03;;;3.08;;
26484;SDS011;18083;50.560;7.262;2022-08-14T00:56:53;5.25;;;3.35;;
26484;SDS011;18083;50.560;7.262;2022-08-14T00:59:20;3.10;;;2.90;;
26484;SDS011;18083;50.560;7.262;2022-08-14T01:01:48;5.17;;;3.52;;
26484;SDS011;18083;50.560;7.262;2022-08-14T01:04:15;6.30;;;4.10;;
26484;SDS011;18083;50.560;7.262;2022-08-14T01:06:43;3.42;;;3.12;;
26484;SDS011;18083;50.560;7.262;2022-08-14T01:09:10;4.17;;;3.20;;
26484;SDS011;18083;50.560;7.262;2022-08-14T01:11:38;4.28;;;3.50;;
26484;SDS011;18083;50.560;7.262;2022-08-14T01:14:06;3.65;;;3.35;;
26484;SDS011;18083;50.560;7.262;2022-08-14T01:16:33;4.40;;;4.00;;
26484;SDS011;18083;50.560;7.262;2022-08-14T01:19:00;4.30;;;3.75;;
26484;SDS011;18083;50.560;7.262;2022-08-14T01:21:46;4.12;;;3.83;;
26484;SDS011;18083;50.560;7.262;2022-08-14T01:24:13;4.90;;;3.62;;
26484;SDS011;18083;50.560;7.262;2022-08-14T01:26:41;3.87;;;3.15;;
26484;SDS011;18083;50.560;7.262;2022-08-14T01:29:08;5.00;;;3.83;;
26484;SDS011;18083;50.560;7.262;2022-08-14T01:31:36;5.05;;;3.72;;
26484;SDS011;18083;50.560;7.262;2022-08-14T01:34:14;6.53;;;3.90;;
26484;SDS011;18083;50.560;7.262;2022-08-14T01:36:42;4.10;;;3.77;;
26484;SDS011;18083;50.560;7.262;2022-08-14T01:39:14;4.55;;;4.15;;
26484;SDS011;18083;50.560;7.262;2022-08-14T01:41:38;4.97;;;3.80;;
26484;SDS011;18083;50.560;7.262;2022-08-14T01:44:07;4.97;;;4.10;;
26484;SDS011;18083;50.560;7.262;2022-08-14T01:46:38;4.40;;;3.37;;
26484;SDS011;18083;50.560;7.262;2022-08-14T01:49:06;5.62;;;3.70;;
26484;SDS011;18083;50.560;7.262;2022-08-14T01:51:35;4.10;;;3.80;;
26484;SDS011;18083;50.560;7.262;2022-08-14T01:54:08;5.50;;;3.92;;
26484;SDS011;18083;50.560;7.262;2022-08-14T01:56:32;5.90;;;4.20;;
26484;SDS011;18083;50.560;7.262;2022-08-14T01:59:05;4.42;;;4.05;;
26484;SDS011;18083;50.560;7.262;2022-08-14T02:01:33;4.75;;;4.25;;
26484;SDS011;18083;50.560;7.262;2022-08-14T02:04:02;4.10;;;3.75;;
26484;SDS011;18083;50.560;7.262;2022-08-14T02:06:29;6.35;;;3.95;;
26484;SDS011;18083;50.560;7.262;2022-08-14T02:08:57;5.35;;;4.35;;
26484;SDS011;18083;50.560;7.262;2022-08-14T02:11:25;4.90;;;3.95;;
26484;SDS011;18083;50.560;7.262;2022-08-14T02:14:03;5.12;;;4.67;;
26484;SDS011;18083;50.560;7.262;2022-08-14T02:16:28;6.25;;;4.33;;
26484;SDS011;18083;50.560;7.262;2022-08-14T02:18:57;4.75;;;4.25;;
26484;SDS011;18083;50.560;7.262;2022-08-14T02:21:26;5.10;;;4.60;;
26484;SDS011;18083;50.560;7.262;2022-08-14T02:23:54;5.97;;;5.17;;
26484;SDS011;18083;50.560;7.262;2022-08-14T02:26:25;5.67;;;4.70;;
26484;SDS011;18083;50.560;7.262;2022-08-14T02:28:54;5.20;;;4.62;;
26484;SDS011;18083;50.560;7.262;2022-08-14T02:31:23;6.78;;;5.33;;
26484;SDS011;18083;50.560;7.262;2022-08-14T02:33:51;5.12;;;4.62;;
26484;SDS011;18083;50.560;7.262;2022-08-14T02:36:18;4.87;;;4.42;;
26484;SDS011;18083;50.560;7.262;2022-08-14T02:38:45;5.10;;;4.67;;
26484;SDS011;18083;50.560;7.262;2022-08-14T02:41:13;5.33;;;4.92;;
26484;SDS011;18083;50.560;7.262;2022-08-14T02:43:41;9.05;;;5.08;;
26484;SDS011;18083;50.560;7.262;2022-08-14T02:46:09;5.67;;;5.00;;
26484;SDS011;18083;50.560;7.262;2022-08-14T02:48:37;5.40;;;4.78;;
26484;SDS011;18083;50.560;7.262;2022-08-14T02:51:07;7.15;;;4.95;;
26484;SDS011;18083;50.560;7.262;2022-08-14T02:53:37;5.15;;;4.70;;
26484;SDS011;18083;50.560;7.262;2022-08-14T02:56:05;5.37;;;4.87;;
26484;SDS011;18083;50.560;7.262;2022-08-14T02:58:35;5.35;;;4.85;;
26484;SDS011;18083;50.560;7.262;2022-08-14T03:01:07;5.37;;;4.92;;
26484;SDS011;18083;50.560;7.262;2022-08-14T03:03:35;4.62;;;4.22;;
26484;SDS011;18083;50.560;7.262;2022-08-14T03:06:02;6.05;;;5.45;;
26484;SDS011;18083;50.560;7.262;2022-08-14T03:08:30;7.12;;;5.10;;
26484;SDS011;18083;50.560;7.262;2022-08-14T03:11:03;4.83;;;4.42;;
26484;SDS011;18083;50.560;7.262;2022-08-14T03:13:29;6.15;;;5.05;;
26484;SDS011;18083;50.560;7.262;2022-08-14T03:15:58;5.78;;;5.20;;
26484;SDS011;18083;50.560;7.262;2022-08-14T03:18:26;7.78;;;5.87;;
26484;SDS011;18083;50.560;7.262;2022-08-14T03:20:53;7.12;;;6.08;;
26484;SDS011;18083;50.560;7.262;2022-08-14T03:23:21;7.08;;;6.25;;
26484;SDS011;18083;50.560;7.262;2022-08-14T03:25:48;6.42;;;5.80;;
26484;SDS011;18083;50.560;7.262;2022-08-14T03:28:15;6.15;;;5.58;;
26484;SDS011;18083;50.560;7.262;2022-08-14T03:30:43;6.50;;;5.87;;
26484;SDS011;18083;50.560;7.262;2022-08-14T03:33:11;6.10;;;5.33;;
26484;SDS011;18083;50.560;7.262;2022-08-14T03:35:39;7.75;;;5.67;;
26484;SDS011;18083;50.560;7.262;2022-08-14T03:38:08;9.45;;;6.90;;
26484;SDS011;18083;50.560;7.262;2022-08-14T03:40:40;6.08;;;5.47;;
26484;SDS011;18083;50.560;7.262;2022-08-14T03:43:05;6.53;;;5.92;;
26484;SDS011;18083;50.560;7.262;2022-08-14T03:45:33;6.75;;;6.05;;
26484;SDS011;18083;50.560;7.262;2022-08-14T03:48:09;7.15;;;6.10;;
26484;SDS011;18083;50.560;7.262;2022-08-14T03:50:32;6.37;;;5.40;;
26484;SDS011;18083;50.560;7.262;2022-08-14T03:53:00;7.37;;;4.95;;
26484;SDS011;18083;50.560;7.262;2022-08-14T03:55:28;6.62;;;5.80;;
26484;SDS011;18083;50.560;7.262;2022-08-14T03:57:55;6.47;;;5.87;;
26484;SDS011;18083;50.560;7.262;2022-08-14T04:00:23;7.50;;;6.75;;
26484;SDS011;18083;50.560;7.262;2022-08-14T04:02:50;6.70;;;5.75;;
26484;SDS011;18083;50.560;7.262;2022-08-14T04:05:17;7.37;;;6.67;;
26484;SDS011;18083;50.560;7.262;2022-08-14T04:07:46;6.45;;;5.85;;
26484;SDS011;18083;50.560;7.262;2022-08-14T04:10:13;7.53;;;6.70;;
26484;SDS011;18083;50.560;7.262;2022-08-14T04:12:41;7.37;;;6.67;;
26484;SDS011;18083;50.560;7.262;2022-08-14T04:15:08;8.20;;;6.33;;
26484;SDS011;18083;50.560;7.262;2022-08-14T04:17:36;7.05;;;6.45;;
26484;SDS011;18083;50.560;7.262;2022-08-14T04:20:04;7.90;;;5.62;;
26484;SDS011;18083;50.560;7.262;2022-08-14T04:22:32;6.92;;;5.85;;
26484;SDS011;18083;50.560;7.262;2022-08-14T04:25:00;7.15;;;6.53;;
26484;SDS011;18083;50.560;7.262;2022-08-14T04:27:27;6.95;;;6.33;;
26484;SDS011;18083;50.560;7.262;2022-08-14T04:29:55;9.20;;;6.70;;
26484;SDS011;18083;50.560;7.262;2022-08-14T04:32:22;7.50;;;6.80;;
26484;SDS011;18083;50.560;7.262;2022-08-14T04:34:52;7.47;;;6.58;;
26484;SDS011;18083;50.560;7.262;2022-08-14T04:37:21;7.85;;;6.58;;
26484;SDS011;18083;50.560;7.262;2022-08-14T04:40:06;6.78;;;6.17;;
26484;SDS011;18083;50.560;7.262;2022-08-14T04:42:52;6.92;;;6.28;;
26484;SDS011;18083;50.560;7.262;2022-08-14T04:45:37;7.42;;;6.55;;
26484;SDS011;18083;50.560;7.262;2022-08-14T04:48:07;8.50;;;6.87;;
26484;SDS011;18083;50.560;7.262;2022-08-14T04:50:49;7.65;;;6.95;;
26484;SDS011;18083;50.560;7.262;2022-08-14T04:53:13;8.68;;;7.80;;
26484;SDS011;18083;50.560;7.262;2022-08-14T04:55:42;7.65;;;6.85;;
26484;SDS011;18083;50.560;7.262;2022-08-14T04:58:11;9.05;;;8.20;;
26484;SDS011;18083;50.560;7.262;2022-08-14T05:00:38;7.95;;;7.25;;
26484;SDS011;18083;50.560;7.262;2022-08-14T05:03:08;8.23;;;7.08;;
26484;SDS011;18083;50.560;7.262;2022-08-14T05:05:35;10.00;;;7.72;;
26484;SDS011;18083;50.560;7.262;2022-08-14T05:08:03;9.60;;;7.83;;
26484;SDS011;18083;50.560;7.262;2022-08-14T05:10:32;8.95;;;7.97;;
26484;SDS011;18083;50.560;7.262;2022-08-14T05:13:00;11.80;;;8.15;;
26484;SDS011;18083;50.560;7.262;2022-08-14T05:15:27;9.23;;;8.33;;
26484;SDS011;18083;50.560;7.262;2022-08-14T05:17:56;8.23;;;7.50;;
26484;SDS011;18083;50.560;7.262;2022-08-14T05:20:23;8.98;;;8.10;;
26484;SDS011;18083;50.560;7.262;2022-08-14T05:22:50;9.08;;;8.25;;
26484;SDS011;18083;50.560;7.262;2022-08-14T05:25:18;9.50;;;8.60;;
26484;SDS011;18083;50.560;7.262;2022-08-14T05:27:45;8.25;;;7.45;;
26484;SDS011;18083;50.560;7.262;2022-08-14T05:30:13;10.25;;;7.78;;
26484;SDS011;18083;50.560;7.262;2022-08-14T05:32:40;8.83;;;7.92;;
26484;SDS011;18083;50.560;7.262;2022-08-14T05:35:08;9.65;;;7.85;;
26484;SDS011;18083;50.560;7.262;2022-08-14T05:37:37;10.45;;;7.50;;
26484;SDS011;18083;50.560;7.262;2022-08-14T05:40:05;10.15;;;7.67;;
26484;SDS011;18083;50.560;7.262;2022-08-14T05:42:34;10.05;;;9.05;;
26484;SDS011;18083;50.560;7.262;2022-08-14T05:45:03;8.63;;;7.75;;
26484;SDS011;18083;50.560;7.262;2022-08-14T05:47:31;11.48;;;9.35;;
26484;SDS011;18083;50.560;7.262;2022-08-14T05:49:58;8.83;;;8.03;;
26484;SDS011;18083;50.560;7.262;2022-08-14T05:52:25;9.10;;;8.20;;
26484;SDS011;18083;50.560;7.262;2022-08-14T05:54:53;8.80;;;7.85;;
26484;SDS011;18083;50.560;7.262;2022-08-14T05:57:20;8.88;;;8.08;;
26484;SDS011;18083;50.560;7.262;2022-08-14T05:59:47;9.23;;;8.20;;
26484;SDS011;18083;50.560;7.262;2022-08-14T06:02:15;9.30;;;8.33;;
26484;SDS011;18083;50.560;7.262;2022-08-14T06:04:42;8.88;;;7.97;;
26484;SDS011;18083;50.560;7.262;2022-08-14T06:07:11;8.05;;;7.30;;
26484;SDS011;18083;50.560;7.262;2022-08-14T06:09:38;9.23;;;8.33;;
26484;SDS011;18083;50.560;7.262;2022-08-14T06:12:10;10.82;;;7.22;;
26484;SDS011;18083;50.560;7.262;2022-08-14T06:14:35;8.00;;;7.30;;
26484;SDS011;18083;50.560;7.262;2022-08-14T06:17:03;8.78;;;7.90;;
26484;SDS011;18083;50.560;7.262;2022-08-14T06:19:30;9.50;;;7.95;;
26484;SDS011;18083;50.560;7.262;2022-08-14T06:21:58;8.38;;;7.47;;
26484;SDS011;18083;50.560;7.262;2022-08-14T06:24:26;9.95;;;8.43;;
26484;SDS011;18083;50.560;7.262;2022-08-14T06:26:53;8.38;;;7.53;;
26484;SDS011;18083;50.560;7.262;2022-08-14T06:29:21;8.60;;;7.17;;
26484;SDS011;18083;50.560;7.262;2022-08-14T06:31:48;8.20;;;7.40;;
26484;SDS011;18083;50.560;7.262;2022-08-14T06:34:16;11.03;;;6.85;;
26484;SDS011;18083;50.560;7.262;2022-08-14T06:36:43;6.90;;;6.40;;
26484;SDS011;18083;50.560;7.262;2022-08-14T06:39:11;8.98;;;7.45;;
26484;SDS011;18083;50.560;7.262;2022-08-14T06:41:38;7.15;;;6.53;;
26484;SDS011;18083;50.560;7.262;2022-08-14T06:44:07;7.83;;;7.20;;
26484;SDS011;18083;50.560;7.262;2022-08-14T06:46:35;7.08;;;6.37;;
26484;SDS011;18083;50.560;7.262;2022-08-14T06:49:02;6.97;;;6.37;;
26484;SDS011;18083;50.560;7.262;2022-08-14T06:51:29;8.05;;;7.30;;
26484;SDS011;18083;50.560;7.262;2022-08-14T06:53:57;7.67;;;6.78;;
26484;SDS011;18083;50.560;7.262;2022-08-14T06:56:24;8.08;;;7.37;;
26484;SDS011;18083;50.560;7.262;2022-08-14T06:58:52;8.15;;;6.58;;
26484;SDS011;18083;50.560;7.262;2022-08-14T07:01:19;7.95;;;7.15;;
26484;SDS011;18083;50.560;7.262;2022-08-14T07:04:04;7.67;;;6.97;;
26484;SDS011;18083;50.560;7.262;2022-08-14T07:06:50;8.05;;;6.47;;
26484;SDS011;18083;50.560;7.262;2022-08-14T07:09:18;7.78;;;6.92;;
26484;SDS011;18083;50.560;7.262;2022-08-14T07:11:45;8.03;;;7.08;;
26484;SDS011;18083;50.560;7.262;2022-08-14T07:14:13;8.25;;;7.45;;
26484;SDS011;18083;50.560;7.262;2022-08-14T07:16:40;8.88;;;7.53;;
26484;SDS011;18083;50.560;7.262;2022-08-14T07:19:07;9.60;;;7.25;;
26484;SDS011;18083;50.560;7.262;2022-08-14T07:21:35;8.85;;;7.72;;
26484;SDS011;18083;50.560;7.262;2022-08-14T07:24:02;8.30;;;7.28;;
26484;SDS011;18083;50.560;7.262;2022-08-14T07:26:29;9.70;;;7.78;;
26484;SDS011;18083;50.560;7.262;2022-08-14T07:28:57;7.87;;;7.17;;
26484;SDS011;18083;50.560;7.262;2022-08-14T07:31:24;8.73;;;8.00;;
26484;SDS011;18083;50.560;7.262;2022-08-14T07:33:51;8.03;;;7.33;;
26484;SDS011;18083;50.560;7.262;2022-08-14T07:36:19;9.18;;;8.38;;
26484;SDS011;18083;50.560;7.262;2022-08-14T07:38:47;8.35;;;7.55;;
26484;SDS011;18083;50.560;7.262;2022-08-14T07:41:14;7.78;;;7.08;;
26484;SDS011;18083;50.560;7.262;2022-08-14T07:43:42;9.90;;;7.95;;
26484;SDS011;18083;50.560;7.262;2022-08-14T07:46:09;8.38;;;7.65;;
26484;SDS011;18083;50.560;7.262;2022-08-14T07:48:37;8.60;;;7.80;;
26484;SDS011;18083;50.560;7.262;2022-08-14T07:51:05;7.53;;;6.83;;
26484;SDS011;18083;50.560;7.262;2022-08-14T07:53:33;9.00;;;8.13;;
26484;SDS011;18083;50.560;7.262;2022-08-14T07:56:00;8.75;;;7.83;;
26484;SDS011;18083;50.560;7.262;2022-08-14T07:58:27;8.08;;;7.28;;
26484;SDS011;18083;50.560;7.262;2022-08-14T08:00:55;8.25;;;7.53;;
26484;SDS011;18083;50.560;7.262;2022-08-14T08:03:23;8.83;;;8.03;;
26484;SDS011;18083;50.560;7.262;2022-08-14T08:05:53;7.95;;;7.15;;
26484;SDS011;18083;50.560;7.262;2022-08-14T08:08:20;9.20;;;7.90;;
26484;SDS011;18083;50.560;7.262;2022-08-14T08:10:47;8.28;;;7.58;;
26484;SDS011;18083;50.560;7.262;2022-08-14T08:13:17;8.10;;;7.30;;
26484;SDS011;18083;50.560;7.262;2022-08-14T08:15:45;9.50;;;8.65;;
26484;SDS011;18083;50.560;7.262;2022-08-14T08:18:13;8.70;;;8.00;;
26484;SDS011;18083;50.560;7.262;2022-08-14T08:20:44;8.43;;;7.62;;
26484;SDS011;18083;50.560;7.262;2022-08-14T08:23:12;8.05;;;7.28;;
26484;SDS011;18083;50.560;7.262;2022-08-14T08:25:40;8.63;;;7.90;;
26484;SDS011;18083;50.560;7.262;2022-08-14T08:28:12;7.65;;;7.03;;
26484;SDS011;18083;50.560;7.262;2022-08-14T08:30:40;9.80;;;7.42;;
26484;SDS011;18083;50.560;7.262;2022-08-14T08:33:08;7.85;;;7.20;;
26484;SDS011;18083;50.560;7.262;2022-08-14T08:35:40;6.85;;;6.25;;
26484;SDS011;18083;50.560;7.262;2022-08-14T08:38:09;7.62;;;6.92;;
26484;SDS011;18083;50.560;7.262;2022-08-14T08:40:38;8.43;;;7.72;;
26484;SDS011;18083;50.560;7.262;2022-08-14T08:43:16;8.10;;;7.03;;
26484;SDS011;18083;50.560;7.262;2022-08-14T08:45:43;8.10;;;7.40;;
26484;SDS011;18083;50.560;7.262;2022-08-14T08:48:11;7.03;;;6.42;;
26484;SDS011;18083;50.560;7.262;2022-08-14T08:50:38;7.78;;;7.10;;
26484;SDS011;18083;50.560;7.262;2022-08-14T08:53:07;8.38;;;7.55;;
26484;SDS011;18083;50.560;7.262;2022-08-14T08:55:35;6.50;;;5.90;;
26484;SDS011;18083;50.560;7.262;2022-08-14T08:58:06;8.38;;;7.60;;
26484;SDS011;18083;50.560;7.262;2022-08-14T09:00:34;7.97;;;7.28;;
26484;SDS011;18083;50.560;7.262;2022-08-14T09:05:31;8.13;;;7.53;;
26484;SDS011;18083;50.560;7.262;2022-08-14T09:08:08;8.30;;;7.50;;
26484;SDS011;18083;50.560;7.262;2022-08-14T09:10:36;9.75;;;8.70;;
26484;SDS011;18083;50.560;7.262;2022-08-14T09:13:04;7.40;;;6.80;;
26484;SDS011;18083;50.560;7.262;2022-08-14T09:15:31;8.20;;;7.53;;
26484;SDS011;18083;50.560;7.262;2022-08-14T09:17:59;7.95;;;7.20;;
26484;SDS011;18083;50.560;7.262;2022-08-14T09:20:26;7.40;;;6.80;;
26484;SDS011;18083;50.560;7.262;2022-08-14T09:22:54;7.28;;;6.67;;
26484;SDS011;18083;50.560;7.262;2022-08-14T09:25:22;8.00;;;7.25;;
26484;SDS011;18083;50.560;7.262;2022-08-14T09:27:49;7.70;;;7.10;;
26484;SDS011;18083;50.560;7.262;2022-08-14T09:30:17;17.65;;;7.72;;
26484;SDS011;18083;50.560;7.262;2022-08-14T09:33:03;8.03;;;7.22;;
26484;SDS011;18083;50.560;7.262;2022-08-14T09:38:10;7.17;;;6.67;;
26484;SDS011;18083;50.560;7.262;2022-08-14T09:40:37;7.47;;;6.87;;
26484;SDS011;18083;50.560;7.262;2022-08-14T09:43:15;8.08;;;6.25;;
26484;SDS011;18083;50.560;7.262;2022-08-14T09:45:44;9.20;;;6.72;;
26484;SDS011;18083;50.560;7.262;2022-08-14T09:48:17;6.72;;;6.05;;
26484;SDS011;18083;50.560;7.262;2022-08-14T09:50:49;6.55;;;5.90;;
26484;SDS011;18083;50.560;7.262;2022-08-14T09:56:02;6.80;;;6.20;;
26484;SDS011;18083;50.560;7.262;2022-08-14T10:01:13;6.40;;;5.90;;
26484;SDS011;18083;50.560;7.262;2022-08-14T10:03:52;5.78;;;5.37;;
26484;SDS011;18083;50.560;7.262;2022-08-14T10:06:11;6.03;;;5.53;;
26484;SDS011;18083;50.560;7.262;2022-08-14T10:11:14;5.55;;;5.10;;
26484;SDS011;18083;50.560;7.262;2022-08-14T10:13:42;5.45;;;4.95;;
26484;SDS011;18083;50.560;7.262;2022-08-14T10:16:10;6.58;;;6.00;;
26484;SDS011;18083;50.560;7.262;2022-08-14T10:18:38;7.87;;;5.95;;
26484;SDS011;18083;50.560;7.262;2022-08-14T10:21:07;6.10;;;5.50;;
26484;SDS011;18083;50.560;7.262;2022-08-14T10:23:41;6.17;;;4.50;;
26484;SDS011;18083;50.560;7.262;2022-08-14T10:26:09;4.92;;;4.53;;
26484;SDS011;18083;50.560;7.262;2022-08-14T10:28:43;5.25;;;4.85;;
26484;SDS011;18083;50.560;7.262;2022-08-14T10:31:18;5.17;;;4.78;;
26484;SDS011;18083;50.560;7.262;2022-08-14T10:33:56;5.78;;;4.75;;
26484;SDS011;18083;50.560;7.262;2022-08-14T10:36:24;4.85;;;4.40;;
26484;SDS011;18083;50.560;7.262;2022-08-14T10:38:44;5.72;;;4.15;;
26484;SDS011;18083;50.560;7.262;2022-08-14T10:41:12;5.25;;;3.98;;
26484;SDS011;18083;50.560;7.262;2022-08-14T10:43:40;5.20;;;4.70;;
26484;SDS011;18083;50.560;7.262;2022-08-14T10:46:16;5.50;;;5.08;;
26484;SDS011;18083;50.560;7.262;2022-08-14T10:48:39;5.58;;;5.08;;
26484;SDS011;18083;50.560;7.262;2022-08-14T10:51:07;5.00;;;4.62;;
26484;SDS011;18083;50.560;7.262;2022-08-14T10:53:35;6.97;;;5.33;;
26484;SDS011;18083;50.560;7.262;2022-08-14T10:56:03;10.93;;;5.25;;
26484;SDS011;18083;50.560;7.262;2022-08-14T10:58:32;6.12;;;5.53;;
26484;SDS011;18083;50.560;7.262;2022-08-14T11:01:00;5.12;;;4.62;;
26484;SDS011;18083;50.560;7.262;2022-08-14T11:03:36;7.55;;;5.20;;
26484;SDS011;18083;50.560;7.262;2022-08-14T11:06:11;6.95;;;4.28;;
26484;SDS011;18083;50.560;7.262;2022-08-14T11:08:43;5.10;;;4.60;;
26484;SDS011;18083;50.560;7.262;2022-08-14T11:11:10;4.85;;;4.45;;
26484;SDS011;18083;50.560;7.262;2022-08-14T11:13:39;4.10;;;3.80;;
26484;SDS011;18083;50.560;7.262;2022-08-14T11:16:09;5.05;;;4.50;;
26484;SDS011;18083;50.560;7.262;2022-08-14T11:18:37;5.08;;;4.58;;
26484;SDS011;18083;50.560;7.262;2022-08-14T11:21:04;7.30;;;5.10;;
26484;SDS011;18083;50.560;7.262;2022-08-14T11:23:33;5.67;;;5.17;;
26484;SDS011;18083;50.560;7.262;2022-08-14T11:26:01;4.62;;;4.22;;
26484;SDS011;18083;50.560;7.262;2022-08-14T11:28:33;4.45;;;4.15;;
26484;SDS011;18083;50.560;7.262;2022-08-14T11:31:01;4.75;;;4.35;;
26484;SDS011;18083;50.560;7.262;2022-08-14T11:33:29;4.95;;;4.47;;
26484;SDS011;18083;50.560;7.262;2022-08-14T11:35:58;5.05;;;4.22;;
26484;SDS011;18083;50.560;7.262;2022-08-14T11:38:36;4.40;;;4.03;;
26484;SDS011;18083;50.560;7.262;2022-08-14T11:41:03;4.60;;;4.30;;
26484;SDS011;18083;50.560;7.262;2022-08-14T11:43:31;7.05;;;4.97;;
26484;SDS011;18083;50.560;7.262;2022-08-14T11:45:59;4.37;;;3.98;;
26484;SDS011;18083;50.560;7.262;2022-08-14T11:48:26;5.25;;;3.80;;
26484;SDS011;18083;50.560;7.262;2022-08-14T11:50:54;4.25;;;3.95;;
26484;SDS011;18083;50.560;7.262;2022-08-14T11:53:23;4.15;;;3.72;;
26484;SDS011;18083;50.560;7.262;2022-08-14T11:55:59;6.22;;;4.53;;
26484;SDS011;18083;50.560;7.262;2022-08-14T11:58:31;4.20;;;3.58;;
26484;SDS011;18083;50.560;7.262;2022-08-14T12:00:57;4.72;;;4.30;;
26484;SDS011;18083;50.560;7.262;2022-08-14T12:06:10;4.33;;;4.03;;
26484;SDS011;18083;50.560;7.262;2022-08-14T12:08:34;4.03;;;3.62;;
26484;SDS011;18083;50.560;7.262;2022-08-14T12:11:03;3.90;;;3.60;;
26484;SDS011;18083;50.560;7.262;2022-08-14T12:13:30;4.20;;;3.90;;
26484;SDS011;18083;50.560;7.262;2022-08-14T12:16:05;3.98;;;3.70;;
26484;SDS011;18083;50.560;7.262;2022-08-14T12:18:34;4.10;;;3.70;;
26484;SDS011;18083;50.560;7.262;2022-08-14T12:21:12;3.50;;;3.20;;
26484;SDS011;18083;50.560;7.262;2022-08-14T12:23:39;3.33;;;3.12;;
26484;SDS011;18083;50.560;7.262;2022-08-14T12:26:08;3.65;;;3.45;;
26484;SDS011;18083;50.560;7.262;2022-08-14T12:28:35;3.50;;;3.30;;
26484;SDS011;18083;50.560;7.262;2022-08-14T12:31:11;4.65;;;3.42;;
26484;SDS011;18083;50.560;7.262;2022-08-14T12:33:38;4.67;;;3.80;;
26484;SDS011;18083;50.560;7.262;2022-08-14T12:36:08;4.20;;;3.80;;
26484;SDS011;18083;50.560;7.262;2022-08-14T12:38:39;4.95;;;3.17;;
26484;SDS011;18083;50.560;7.262;2022-08-14T12:41:17;3.33;;;2.98;;
26484;SDS011;18083;50.560;7.262;2022-08-14T12:43:46;3.83;;;3.55;;
26484;SDS011;18083;50.560;7.262;2022-08-14T12:49:00;6.55;;;4.10;;
26484;SDS011;18083;50.560;7.262;2022-08-14T12:51:32;4.37;;;4.00;;
26484;SDS011;18083;50.560;7.262;2022-08-14T12:53:59;3.92;;;3.62;;
26484;SDS011;18083;50.560;7.262;2022-08-14T12:56:28;4.85;;;3.45;;
26484;SDS011;18083;50.560;7.262;2022-08-14T12:58:56;3.85;;;3.55;;
26484;SDS011;18083;50.560;7.262;2022-08-14T13:01:27;5.28;;;3.90;;
26484;SDS011;18083;50.560;7.262;2022-08-14T13:04:03;3.72;;;3.37;;
26484;SDS011;18083;50.560;7.262;2022-08-14T13:06:30;3.98;;;3.58;;
26484;SDS011;18083;50.560;7.262;2022-08-14T13:08:59;3.87;;;3.58;;
26484;SDS011;18083;50.560;7.262;2022-08-14T13:11:27;7.90;;;4.50;;
26484;SDS011;18083;50.560;7.262;2022-08-14T13:13:57;3.80;;;3.50;;
26484;SDS011;18083;50.560;7.262;2022-08-14T13:16:27;4.55;;;4.20;;
26484;SDS011;18083;50.560;7.262;2022-08-14T13:18:55;5.87;;;3.83;;
26484;SDS011;18083;50.560;7.262;2022-08-14T13:21:24;4.55;;;3.25;;
26484;SDS011;18083;50.560;7.262;2022-08-14T13:23:53;4.28;;;3.90;;
26484;SDS011;18083;50.560;7.262;2022-08-14T13:26:24;4.20;;;3.52;;
26484;SDS011;18083;50.560;7.262;2022-08-14T13:28:49;4.42;;;3.92;;
26484;SDS011;18083;50.560;7.262;2022-08-14T13:31:19;6.95;;;4.10;;
26484;SDS011;18083;50.560;7.262;2022-08-14T13:33:48;6.80;;;4.33;;
26484;SDS011;18083;50.560;7.262;2022-08-14T13:36:15;7.85;;;4.50;;
26484;SDS011;18083;50.560;7.262;2022-08-14T13:38:43;4.42;;;4.10;;
26484;SDS011;18083;50.560;7.262;2022-08-14T13:41:10;4.33;;;3.92;;
26484;SDS011;18083;50.560;7.262;2022-08-14T13:43:37;3.75;;;3.45;;
26484;SDS011;18083;50.560;7.262;2022-08-14T13:46:05;5.28;;;3.87;;
26484;SDS011;18083;50.560;7.262;2022-08-14T13:48:32;4.58;;;4.08;;
26484;SDS011;18083;50.560;7.262;2022-08-14T13:51:01;4.58;;;3.90;;
26484;SDS011;18083;50.560;7.262;2022-08-14T13:53:29;4.45;;;3.80;;
26484;SDS011;18083;50.560;7.262;2022-08-14T13:55:59;6.25;;;4.20;;
26484;SDS011;18083;50.560;7.262;2022-08-14T13:58:27;4.42;;;3.98;;
26484;SDS011;18083;50.560;7.262;2022-08-14T14:00:56;3.98;;;3.67;;
26484;SDS011;18083;50.560;7.262;2022-08-14T14:03:23;4.28;;;3.90;;
26484;SDS011;18083;50.560;7.262;2022-08-14T14:05:52;5.10;;;4.70;;
26484;SDS011;18083;50.560;7.262;2022-08-14T14:08:21;5.03;;;3.98;;
26484;SDS011;18083;50.560;7.262;2022-08-14T14:10:48;4.30;;;4.00;;
26484;SDS011;18083;50.560;7.262;2022-08-14T14:13:18;4.70;;;4.30;;
26484;SDS011;18083;50.560;7.262;2022-08-14T14:15:47;5.08;;;4.67;;
26484;SDS011;18083;50.560;7.262;2022-08-14T14:18:15;4.90;;;4.50;;
26484;SDS011;18083;50.560;7.262;2022-08-14T14:20:42;5.87;;;4.83;;
26484;SDS011;18083;50.560;7.262;2022-08-14T14:23:13;5.05;;;4.65;;
26484;SDS011;18083;50.560;7.262;2022-08-14T14:25:44;4.62;;;4.28;;
26484;SDS011;18083;50.560;7.262;2022-08-14T14:28:15;4.60;;;4.30;;
26484;SDS011;18083;50.560;7.262;2022-08-14T14:30:45;6.90;;;4.62;;
26484;SDS011;18083;50.560;7.262;2022-08-14T14:33:13;4.50;;;4.20;;
26484;SDS011;18083;50.560;7.262;2022-08-14T14:35:45;11.85;;;4.28;;
26484;SDS011;18083;50.560;7.262;2022-08-14T14:38:12;4.33;;;3.92;;
26484;SDS011;18083;50.560;7.262;2022-08-14T14:40:38;4.22;;;3.92;;
26484;SDS011;18083;50.560;7.262;2022-08-14T14:43:06;4.10;;;3.80;;
26484;SDS011;18083;50.560;7.262;2022-08-14T14:45:35;3.85;;;3.62;;
26484;SDS011;18083;50.560;7.262;2022-08-14T14:48:03;5.40;;;4.03;;
26484;SDS011;18083;50.560;7.262;2022-08-14T14:50:32;4.80;;;4.25;;
26484;SDS011;18083;50.560;7.262;2022-08-14T14:53:00;4.62;;;3.40;;
26484;SDS011;18083;50.560;7.262;2022-08-14T14:55:27;3.98;;;3.67;;
26484;SDS011;18083;50.560;7.262;2022-08-14T14:57:55;5.97;;;3.77;;
26484;SDS011;18083;50.560;7.262;2022-08-14T15:00:24;3.92;;;3.52;;
26484;SDS011;18083;50.560;7.262;2022-08-14T15:02:52;3.58;;;3.33;;
26484;SDS011;18083;50.560;7.262;2022-08-14T15:05:20;4.00;;;3.60;;
26484;SDS011;18083;50.560;7.262;2022-08-14T15:07:49;4.00;;;3.70;;
26484;SDS011;18083;50.560;7.262;2022-08-14T15:10:18;3.92;;;3.58;;
26484;SDS011;18083;50.560;7.262;2022-08-14T15:12:45;4.12;;;3.58;;
26484;SDS011;18083;50.560;7.262;2022-08-14T15:15:13;3.75;;;3.20;;